sensor_id;sensor_type;location;lat;lon;timestamp;P1;durP1;ratioP1;P2;durP2;ratioP2
2173;SDS011;1093;51.424;11.764;2022-09-09T00:02:08;4.60;;;2.90;;
2173;SDS011;1093;51.424;11.764;2022-09-09T00:04:45;5.17;;;2.50;;
2173;SDS011;1093;51.424;11.764;2022-09-09T00:07:21;2.50;;;1.90;;
2173;SDS011;1093;51.424;11.764;2022-09-09T00:09:58;3.07;;;2.30;;
2173;SDS011;1093;51.424;11.764;2022-09-09T00:12:34;3.43;;;2.00;;
2173;SDS011;1093;51.424;11.764;2022-09-09T00:15:07;4.40;;;2.50;;
2173;SDS011;1093;51.424;11.764;2022-09-09T00:17:39;4.83;;;3.07;;
2173;SDS011;1093;51.424;11.764;2022-09-09T00:20:14;5.23;;;2.07;;
2173;SDS011;1093;51.424;11.764;2022-09-09T00:22:50;2.70;;;2.40;;
2173;SDS011;1093;51.424;11.764;2022-09-09T00:25:28;8.40;;;2.60;;
2173;SDS011;1093;51.424;11.764;2022-09-09T00:28:02;4.27;;;2.83;;
2173;SDS011;1093;51.424;11.764;2022-09-09T00:30:37;7.83;;;3.30;;
2173;SDS011;1093;51.424;11.764;2022-09-09T00:33:08;2.80;;;2.60;;
2173;SDS011;1093;51.424;11.764;2022-09-09T00:35:41;7.73;;;3.00;;
2173;SDS011;1093;51.424;11.764;2022-09-09T00:38:12;2.77;;;2.40;;
2173;SDS011;1093;51.424;11.764;2022-09-09T00:40:45;8.37;;;3.30;;
2173;SDS011;1093;51.424;11.764;2022-09-09T00:43:24;2.57;;;2.37;;
2173;SDS011;1093;51.424;11.764;2022-09-09T00:49:00;5.27;;;3.43;;
2173;SDS011;1093;51.424;11.764;2022-09-09T00:51:39;14.13;;;2.97;;
2173;SDS011;1093;51.424;11.764;2022-09-09T00:54:23;5.20;;;2.87;;
2173;SDS011;1093;51.424;11.764;2022-09-09T00:57:03;2.90;;;2.50;;
2173;SDS011;1093;51.424;11.764;2022-09-09T00:59:41;2.73;;;2.53;;
2173;SDS011;1093;51.424;11.764;2022-09-09T01:08:55;6.37;;;3.77;;
2173;SDS011;1093;51.424;11.764;2022-09-09T01:11:32;3.27;;;2.97;;
2173;SDS011;1093;51.424;11.764;2022-09-09T01:14:11;5.43;;;2.87;;
2173;SDS011;1093;51.424;11.764;2022-09-09T01:16:46;8.33;;;3.70;;
2173;SDS011;1093;51.424;11.764;2022-09-09T01:19:15;4.00;;;2.67;;
2173;SDS011;1093;51.424;11.764;2022-09-09T01:21:55;6.60;;;3.30;;
2173;SDS011;1093;51.424;11.764;2022-09-09T01:24:30;4.07;;;3.13;;
2173;SDS011;1093;51.424;11.764;2022-09-09T01:27:06;6.77;;;3.60;;
2173;SDS011;1093;51.424;11.764;2022-09-09T01:29:34;2.97;;;2.60;;
2173;SDS011;1093;51.424;11.764;2022-09-09T01:32:02;4.37;;;3.03;;
2173;SDS011;1093;51.424;11.764;2022-09-09T01:34:44;8.53;;;2.97;;
2173;SDS011;1093;51.424;11.764;2022-09-09T01:37:12;4.80;;;2.47;;
2173;SDS011;1093;51.424;11.764;2022-09-09T01:39:40;4.57;;;2.83;;
2173;SDS011;1093;51.424;11.764;2022-09-09T01:42:13;4.50;;;2.93;;
2173;SDS011;1093;51.424;11.764;2022-09-09T01:44:42;4.27;;;3.33;;
2173;SDS011;1093;51.424;11.764;2022-09-09T01:47:09;4.77;;;3.27;;
2173;SDS011;1093;51.424;11.764;2022-09-09T01:49:36;4.53;;;2.47;;
2173;SDS011;1093;51.424;11.764;2022-09-09T01:52:03;5.73;;;3.10;;
2173;SDS011;1093;51.424;11.764;2022-09-09T01:54:31;4.47;;;3.10;;
2173;SDS011;1093;51.424;11.764;2022-09-09T01:57:01;3.20;;;2.60;;
2173;SDS011;1093;51.424;11.764;2022-09-09T01:59:44;5.30;;;2.70;;
2173;SDS011;1093;51.424;11.764;2022-09-09T02:02:17;5.43;;;2.97;;
2173;SDS011;1093;51.424;11.764;2022-09-09T02:04:47;4.03;;;3.10;;
2173;SDS011;1093;51.424;11.764;2022-09-09T02:07:19;3.90;;;3.23;;
2173;SDS011;1093;51.424;11.764;2022-09-09T02:09:58;3.73;;;2.33;;
2173;SDS011;1093;51.424;11.764;2022-09-09T02:12:28;8.20;;;2.80;;
2173;SDS011;1093;51.424;11.764;2022-09-09T02:15:00;4.17;;;3.43;;
2173;SDS011;1093;51.424;11.764;2022-09-09T02:17:31;5.20;;;2.40;;
2173;SDS011;1093;51.424;11.764;2022-09-09T02:20:03;4.50;;;2.90;;
2173;SDS011;1093;51.424;11.764;2022-09-09T02:22:33;5.97;;;2.93;;
2173;SDS011;1093;51.424;11.764;2022-09-09T02:25:05;4.13;;;2.70;;
2173;SDS011;1093;51.424;11.764;2022-09-09T02:27:35;2.70;;;2.43;;
2173;SDS011;1093;51.424;11.764;2022-09-09T02:30:04;2.80;;;2.53;;
2173;SDS011;1093;51.424;11.764;2022-09-09T02:32:32;8.33;;;4.17;;
2173;SDS011;1093;51.424;11.764;2022-09-09T02:35:03;5.33;;;3.13;;
2173;SDS011;1093;51.424;11.764;2022-09-09T02:37:37;3.50;;;3.20;;
2173;SDS011;1093;51.424;11.764;2022-09-09T02:40:07;7.67;;;3.57;;
2173;SDS011;1093;51.424;11.764;2022-09-09T02:42:40;2.90;;;2.50;;
2173;SDS011;1093;51.424;11.764;2022-09-09T02:45:10;4.53;;;3.20;;
2173;SDS011;1093;51.424;11.764;2022-09-09T02:47:39;3.63;;;3.13;;
2173;SDS011;1093;51.424;11.764;2022-09-09T02:50:14;3.30;;;2.67;;
2173;SDS011;1093;51.424;11.764;2022-09-09T02:52:52;3.50;;;3.20;;
2173;SDS011;1093;51.424;11.764;2022-09-09T02:55:29;5.73;;;3.20;;
2173;SDS011;1093;51.424;11.764;2022-09-09T02:58:04;6.33;;;3.07;;
2173;SDS011;1093;51.424;11.764;2022-09-09T03:00:38;7.00;;;3.10;;
2173;SDS011;1093;51.424;11.764;2022-09-09T03:03:06;3.93;;;2.60;;
2173;SDS011;1093;51.424;11.764;2022-09-09T03:05:34;4.90;;;2.50;;
2173;SDS011;1093;51.424;11.764;2022-09-09T03:08:01;4.47;;;3.07;;
2173;SDS011;1093;51.424;11.764;2022-09-09T03:10:30;5.43;;;4.00;;
2173;SDS011;1093;51.424;11.764;2022-09-09T03:12:57;5.50;;;2.70;;
2173;SDS011;1093;51.424;11.764;2022-09-09T03:15:25;4.13;;;3.73;;
2173;SDS011;1093;51.424;11.764;2022-09-09T03:17:55;3.97;;;2.73;;
2173;SDS011;1093;51.424;11.764;2022-09-09T03:20:23;4.37;;;3.20;;
2173;SDS011;1093;51.424;11.764;2022-09-09T03:22:50;8.37;;;3.63;;
2173;SDS011;1093;51.424;11.764;2022-09-09T03:25:18;5.33;;;3.50;;
2173;SDS011;1093;51.424;11.764;2022-09-09T03:27:45;6.53;;;3.20;;
2173;SDS011;1093;51.424;11.764;2022-09-09T03:30:12;4.80;;;3.50;;
2173;SDS011;1093;51.424;11.764;2022-09-09T03:32:40;3.83;;;3.40;;
2173;SDS011;1093;51.424;11.764;2022-09-09T03:35:09;5.63;;;4.00;;
2173;SDS011;1093;51.424;11.764;2022-09-09T03:37:36;8.33;;;3.97;;
2173;SDS011;1093;51.424;11.764;2022-09-09T03:40:04;5.50;;;3.63;;
2173;SDS011;1093;51.424;11.764;2022-09-09T03:42:31;6.07;;;4.10;;
2173;SDS011;1093;51.424;11.764;2022-09-09T03:44:58;4.90;;;3.83;;
2173;SDS011;1093;51.424;11.764;2022-09-09T03:47:25;4.23;;;3.70;;
2173;SDS011;1093;51.424;11.764;2022-09-09T03:49:52;4.83;;;4.30;;
2173;SDS011;1093;51.424;11.764;2022-09-09T03:52:20;10.63;;;4.47;;
2173;SDS011;1093;51.424;11.764;2022-09-09T03:54:50;5.43;;;4.67;;
2173;SDS011;1093;51.424;11.764;2022-09-09T03:57:17;5.70;;;4.63;;
2173;SDS011;1093;51.424;11.764;2022-09-09T03:59:44;7.33;;;4.47;;
2173;SDS011;1093;51.424;11.764;2022-09-09T04:02:11;4.03;;;3.63;;
2173;SDS011;1093;51.424;11.764;2022-09-09T04:04:38;4.83;;;3.10;;
2173;SDS011;1093;51.424;11.764;2022-09-09T04:07:04;3.80;;;3.47;;
2173;SDS011;1093;51.424;11.764;2022-09-09T04:09:33;4.97;;;3.30;;
2173;SDS011;1093;51.424;11.764;2022-09-09T04:12:00;4.63;;;3.53;;
2173;SDS011;1093;51.424;11.764;2022-09-09T04:14:27;19.27;;;3.90;;
2173;SDS011;1093;51.424;11.764;2022-09-09T04:16:54;4.47;;;3.63;;
2173;SDS011;1093;51.424;11.764;2022-09-09T04:19:23;3.60;;;3.27;;
2173;SDS011;1093;51.424;11.764;2022-09-09T04:21:50;10.70;;;3.97;;
2173;SDS011;1093;51.424;11.764;2022-09-09T04:24:17;4.73;;;3.37;;
2173;SDS011;1093;51.424;11.764;2022-09-09T04:26:46;9.30;;;3.60;;
2173;SDS011;1093;51.424;11.764;2022-09-09T04:29:14;9.57;;;3.53;;
2173;SDS011;1093;51.424;11.764;2022-09-09T04:31:41;6.00;;;3.27;;
2173;SDS011;1093;51.424;11.764;2022-09-09T04:34:07;6.23;;;3.20;;
2173;SDS011;1093;51.424;11.764;2022-09-09T04:36:34;3.30;;;3.00;;
2173;SDS011;1093;51.424;11.764;2022-09-09T04:39:01;7.30;;;3.00;;
2173;SDS011;1093;51.424;11.764;2022-09-09T04:41:28;3.50;;;3.20;;
2173;SDS011;1093;51.424;11.764;2022-09-09T04:43:57;6.27;;;3.07;;
2173;SDS011;1093;51.424;11.764;2022-09-09T04:46:25;7.37;;;3.13;;
2173;SDS011;1093;51.424;11.764;2022-09-09T04:48:52;5.10;;;3.47;;
2173;SDS011;1093;51.424;11.764;2022-09-09T04:51:19;5.80;;;3.40;;
2173;SDS011;1093;51.424;11.764;2022-09-09T04:53:46;12.87;;;3.57;;
2173;SDS011;1093;51.424;11.764;2022-09-09T04:56:15;4.40;;;3.07;;
2173;SDS011;1093;51.424;11.764;2022-09-09T04:58:43;8.03;;;3.40;;
2173;SDS011;1093;51.424;11.764;2022-09-09T05:01:13;3.97;;;2.70;;
2173;SDS011;1093;51.424;11.764;2022-09-09T05:03:42;7.77;;;3.83;;
2173;SDS011;1093;51.424;11.764;2022-09-09T05:06:11;6.00;;;3.37;;
2173;SDS011;1093;51.424;11.764;2022-09-09T05:08:40;4.67;;;3.20;;
2173;SDS011;1093;51.424;11.764;2022-09-09T05:11:13;4.67;;;2.93;;
2173;SDS011;1093;51.424;11.764;2022-09-09T05:13:41;7.67;;;3.40;;
2173;SDS011;1093;51.424;11.764;2022-09-09T05:16:08;3.77;;;3.40;;
2173;SDS011;1093;51.424;11.764;2022-09-09T05:18:37;6.07;;;3.03;;
2173;SDS011;1093;51.424;11.764;2022-09-09T05:21:04;7.03;;;3.80;;
2173;SDS011;1093;51.424;11.764;2022-09-09T05:23:31;9.20;;;3.63;;
2173;SDS011;1093;51.424;11.764;2022-09-09T05:25:59;4.83;;;3.37;;
2173;SDS011;1093;51.424;11.764;2022-09-09T05:28:26;3.63;;;2.20;;
2173;SDS011;1093;51.424;11.764;2022-09-09T05:30:57;5.40;;;3.10;;
2173;SDS011;1093;51.424;11.764;2022-09-09T05:33:25;3.50;;;3.17;;
2173;SDS011;1093;51.424;11.764;2022-09-09T05:35:57;5.00;;;3.70;;
2173;SDS011;1093;51.424;11.764;2022-09-09T05:38:25;4.73;;;2.67;;
2173;SDS011;1093;51.424;11.764;2022-09-09T05:40:51;4.53;;;3.17;;
2173;SDS011;1093;51.424;11.764;2022-09-09T05:43:19;4.67;;;3.23;;
2173;SDS011;1093;51.424;11.764;2022-09-09T05:45:46;4.23;;;3.37;;
2173;SDS011;1093;51.424;11.764;2022-09-09T05:48:13;4.60;;;2.83;;
2173;SDS011;1093;51.424;11.764;2022-09-09T05:50:41;4.93;;;2.80;;
2173;SDS011;1093;51.424;11.764;2022-09-09T05:53:09;4.57;;;3.20;;
2173;SDS011;1093;51.424;11.764;2022-09-09T05:55:36;3.10;;;2.80;;
2173;SDS011;1093;51.424;11.764;2022-09-09T05:58:03;8.80;;;3.13;;
2173;SDS011;1093;51.424;11.764;2022-09-09T06:00:30;9.67;;;3.10;;
2173;SDS011;1093;51.424;11.764;2022-09-09T06:02:57;5.60;;;3.80;;
2173;SDS011;1093;51.424;11.764;2022-09-09T06:05:23;5.03;;;2.60;;
2173;SDS011;1093;51.424;11.764;2022-09-09T06:07:53;3.37;;;3.03;;
2173;SDS011;1093;51.424;11.764;2022-09-09T06:10:21;4.63;;;2.80;;
2173;SDS011;1093;51.424;11.764;2022-09-09T06:12:48;8.10;;;2.90;;
2173;SDS011;1093;51.424;11.764;2022-09-09T06:15:18;4.30;;;2.87;;
2173;SDS011;1093;51.424;11.764;2022-09-09T06:17:45;7.77;;;3.20;;
2173;SDS011;1093;51.424;11.764;2022-09-09T06:20:12;6.27;;;2.67;;
2173;SDS011;1093;51.424;11.764;2022-09-09T06:22:39;7.97;;;2.77;;
2173;SDS011;1093;51.424;11.764;2022-09-09T06:25:07;6.03;;;2.30;;
2173;SDS011;1093;51.424;11.764;2022-09-09T06:27:37;9.63;;;2.73;;
2173;SDS011;1093;51.424;11.764;2022-09-09T06:30:04;4.77;;;2.93;;
2173;SDS011;1093;51.424;11.764;2022-09-09T06:32:32;3.47;;;2.60;;
2173;SDS011;1093;51.424;11.764;2022-09-09T06:34:59;7.20;;;2.80;;
2173;SDS011;1093;51.424;11.764;2022-09-09T06:37:27;4.07;;;3.67;;
2173;SDS011;1093;51.424;11.764;2022-09-09T06:39:54;4.00;;;2.57;;
2173;SDS011;1093;51.424;11.764;2022-09-09T06:42:21;4.70;;;3.33;;
2173;SDS011;1093;51.424;11.764;2022-09-09T06:44:49;5.17;;;2.87;;
2173;SDS011;1093;51.424;11.764;2022-09-09T06:47:17;4.60;;;3.20;;
2173;SDS011;1093;51.424;11.764;2022-09-09T06:49:44;2.63;;;2.43;;
2173;SDS011;1093;51.424;11.764;2022-09-09T06:52:11;4.40;;;2.57;;
2173;SDS011;1093;51.424;11.764;2022-09-09T06:54:38;3.07;;;2.77;;
2173;SDS011;1093;51.424;11.764;2022-09-09T06:57:04;4.90;;;2.57;;
2173;SDS011;1093;51.424;11.764;2022-09-09T06:59:33;5.60;;;2.60;;
2173;SDS011;1093;51.424;11.764;2022-09-09T07:02:01;7.50;;;2.50;;
2173;SDS011;1093;51.424;11.764;2022-09-09T07:04:28;8.33;;;2.60;;
2173;SDS011;1093;51.424;11.764;2022-09-09T07:06:54;7.53;;;2.30;;
2173;SDS011;1093;51.424;11.764;2022-09-09T07:09:21;2.93;;;2.33;;
2173;SDS011;1093;51.424;11.764;2022-09-09T07:11:49;3.83;;;2.40;;
2173;SDS011;1093;51.424;11.764;2022-09-09T07:14:17;4.37;;;2.67;;
2173;SDS011;1093;51.424;11.764;2022-09-09T07:16:45;6.17;;;2.97;;
2173;SDS011;1093;51.424;11.764;2022-09-09T07:19:14;5.03;;;2.13;;
2173;SDS011;1093;51.424;11.764;2022-09-09T07:21:41;6.03;;;2.33;;
2173;SDS011;1093;51.424;11.764;2022-09-09T07:24:09;10.30;;;2.90;;
2173;SDS011;1093;51.424;11.764;2022-09-09T07:26:36;12.30;;;2.60;;
2173;SDS011;1093;51.424;11.764;2022-09-09T07:29:04;3.10;;;2.87;;
2173;SDS011;1093;51.424;11.764;2022-09-09T07:31:32;8.27;;;2.87;;
2173;SDS011;1093;51.424;11.764;2022-09-09T07:34:00;8.77;;;3.00;;
2173;SDS011;1093;51.424;11.764;2022-09-09T07:36:29;5.00;;;2.00;;
2173;SDS011;1093;51.424;11.764;2022-09-09T07:38:58;3.87;;;2.00;;
2173;SDS011;1093;51.424;11.764;2022-09-09T07:41:27;3.80;;;2.40;;
2173;SDS011;1093;51.424;11.764;2022-09-09T07:43:57;4.07;;;2.33;;
2173;SDS011;1093;51.424;11.764;2022-09-09T07:46:24;3.37;;;2.20;;
2173;SDS011;1093;51.424;11.764;2022-09-09T07:48:53;4.07;;;2.20;;
2173;SDS011;1093;51.424;11.764;2022-09-09T07:51:21;5.93;;;2.00;;
2173;SDS011;1093;51.424;11.764;2022-09-09T07:53:52;1.80;;;1.70;;
2173;SDS011;1093;51.424;11.764;2022-09-09T07:56:20;10.23;;;2.10;;
2173;SDS011;1093;51.424;11.764;2022-09-09T07:58:48;3.87;;;1.70;;
2173;SDS011;1093;51.424;11.764;2022-09-09T08:01:17;3.63;;;2.33;;
2173;SDS011;1093;51.424;11.764;2022-09-09T08:03:46;5.43;;;3.37;;
2173;SDS011;1093;51.424;11.764;2022-09-09T08:06:18;4.60;;;1.73;;
2173;SDS011;1093;51.424;11.764;2022-09-09T08:08:45;4.57;;;1.87;;
2173;SDS011;1093;51.424;11.764;2022-09-09T08:11:17;3.77;;;2.07;;
2173;SDS011;1093;51.424;11.764;2022-09-09T08:13:44;2.97;;;1.87;;
2173;SDS011;1093;51.424;11.764;2022-09-09T08:16:13;2.40;;;1.80;;
2173;SDS011;1093;51.424;11.764;2022-09-09T08:18:41;6.10;;;1.70;;
2173;SDS011;1093;51.424;11.764;2022-09-09T08:21:10;3.90;;;1.60;;
2173;SDS011;1093;51.424;11.764;2022-09-09T08:23:38;4.40;;;2.03;;
2173;SDS011;1093;51.424;11.764;2022-09-09T08:26:06;4.23;;;2.10;;
2173;SDS011;1093;51.424;11.764;2022-09-09T08:28:37;3.17;;;1.70;;
2173;SDS011;1093;51.424;11.764;2022-09-09T08:31:06;6.30;;;1.70;;
2173;SDS011;1093;51.424;11.764;2022-09-09T08:33:34;3.80;;;1.77;;
2173;SDS011;1093;51.424;11.764;2022-09-09T08:36:02;7.20;;;1.57;;
2173;SDS011;1093;51.424;11.764;2022-09-09T08:38:29;6.10;;;2.30;;
2173;SDS011;1093;51.424;11.764;2022-09-09T08:40:57;3.83;;;1.97;;
2173;SDS011;1093;51.424;11.764;2022-09-09T08:43:31;3.87;;;1.90;;
2173;SDS011;1093;51.424;11.764;2022-09-09T08:46:00;4.40;;;1.90;;
2173;SDS011;1093;51.424;11.764;2022-09-09T08:48:39;2.83;;;1.93;;
2173;SDS011;1093;51.424;11.764;2022-09-09T08:51:14;3.97;;;1.80;;
2173;SDS011;1093;51.424;11.764;2022-09-09T08:53:43;3.10;;;1.70;;
2173;SDS011;1093;51.424;11.764;2022-09-09T08:56:14;9.97;;;2.43;;
2173;SDS011;1093;51.424;11.764;2022-09-09T08:58:45;5.63;;;1.70;;
2173;SDS011;1093;51.424;11.764;2022-09-09T09:01:25;4.83;;;2.40;;
2173;SDS011;1093;51.424;11.764;2022-09-09T09:04:05;4.70;;;1.70;;
2173;SDS011;1093;51.424;11.764;2022-09-09T09:06:42;3.27;;;1.50;;
2173;SDS011;1093;51.424;11.764;2022-09-09T09:09:18;6.80;;;1.70;;
2173;SDS011;1093;51.424;11.764;2022-09-09T09:11:51;3.07;;;2.03;;
2173;SDS011;1093;51.424;11.764;2022-09-09T09:14:20;4.13;;;1.50;;
2173;SDS011;1093;51.424;11.764;2022-09-09T09:16:52;2.27;;;1.23;;
2173;SDS011;1093;51.424;11.764;2022-09-09T09:19:22;6.57;;;2.00;;
2173;SDS011;1093;51.424;11.764;2022-09-09T09:21:52;6.50;;;1.80;;
2173;SDS011;1093;51.424;11.764;2022-09-09T09:24:23;3.27;;;1.60;;
2173;SDS011;1093;51.424;11.764;2022-09-09T09:26:57;5.77;;;1.80;;
2173;SDS011;1093;51.424;11.764;2022-09-09T09:29:26;3.33;;;1.83;;
2173;SDS011;1093;51.424;11.764;2022-09-09T09:31:55;4.23;;;1.70;;
2173;SDS011;1093;51.424;11.764;2022-09-09T09:34:26;2.97;;;1.40;;
2173;SDS011;1093;51.424;11.764;2022-09-09T09:36:54;5.20;;;1.80;;
2173;SDS011;1093;51.424;11.764;2022-09-09T09:39:23;6.50;;;1.70;;
2173;SDS011;1093;51.424;11.764;2022-09-09T09:41:51;2.90;;;2.30;;
2173;SDS011;1093;51.424;11.764;2022-09-09T09:44:22;3.97;;;1.93;;
2173;SDS011;1093;51.424;11.764;2022-09-09T09:46:51;2.20;;;1.50;;
2173;SDS011;1093;51.424;11.764;2022-09-09T09:49:19;3.00;;;1.47;;
2173;SDS011;1093;51.424;11.764;2022-09-09T09:51:46;4.03;;;2.03;;
2173;SDS011;1093;51.424;11.764;2022-09-09T09:54:14;6.63;;;1.73;;
2173;SDS011;1093;51.424;11.764;2022-09-09T09:56:49;3.43;;;1.60;;
2173;SDS011;1093;51.424;11.764;2022-09-09T09:59:20;2.07;;;1.50;;
2173;SDS011;1093;51.424;11.764;2022-09-09T10:01:48;10.13;;;1.90;;
2173;SDS011;1093;51.424;11.764;2022-09-09T10:04:16;4.27;;;1.50;;
2173;SDS011;1093;51.424;11.764;2022-09-09T10:06:48;2.90;;;1.87;;
2173;SDS011;1093;51.424;11.764;2022-09-09T10:09:20;3.40;;;2.00;;
2173;SDS011;1093;51.424;11.764;2022-09-09T10:11:51;2.17;;;1.60;;
2173;SDS011;1093;51.424;11.764;2022-09-09T10:14:24;3.80;;;1.60;;
2173;SDS011;1093;51.424;11.764;2022-09-09T10:17:03;4.00;;;1.70;;
2173;SDS011;1093;51.424;11.764;2022-09-09T10:19:38;3.83;;;1.70;;
2173;SDS011;1093;51.424;11.764;2022-09-09T10:22:14;3.80;;;1.60;;
2173;SDS011;1093;51.424;11.764;2022-09-09T10:27:43;4.43;;;1.50;;
2173;SDS011;1093;51.424;11.764;2022-09-09T10:30:20;3.43;;;1.50;;
2173;SDS011;1093;51.424;11.764;2022-09-09T10:32:51;4.03;;;1.40;;
2173;SDS011;1093;51.424;11.764;2022-09-09T10:35:29;6.10;;;1.80;;
2173;SDS011;1093;51.424;11.764;2022-09-09T10:38:18;3.77;;;1.27;;
2173;SDS011;1093;51.424;11.764;2022-09-09T10:40:59;3.37;;;2.33;;
2173;SDS011;1093;51.424;11.764;2022-09-09T10:46:31;5.30;;;1.83;;
2173;SDS011;1093;51.424;11.764;2022-09-09T10:49:13;3.53;;;1.93;;
2173;SDS011;1093;51.424;11.764;2022-09-09T10:51:49;5.47;;;2.10;;
2173;SDS011;1093;51.424;11.764;2022-09-09T10:54:28;4.80;;;1.87;;
2173;SDS011;1093;51.424;11.764;2022-09-09T10:57:06;3.03;;;1.57;;
2173;SDS011;1093;51.424;11.764;2022-09-09T10:59:40;1.83;;;1.20;;
2173;SDS011;1093;51.424;11.764;2022-09-09T11:02:12;3.77;;;1.73;;
2173;SDS011;1093;51.424;11.764;2022-09-09T11:04:44;2.60;;;1.80;;
2173;SDS011;1093;51.424;11.764;2022-09-09T11:07:18;3.80;;;2.20;;
2173;SDS011;1093;51.424;11.764;2022-09-09T11:09:54;4.30;;;1.40;;
2173;SDS011;1093;51.424;11.764;2022-09-09T11:12:27;5.97;;;1.87;;
2173;SDS011;1093;51.424;11.764;2022-09-09T11:14:57;4.73;;;2.10;;
2173;SDS011;1093;51.424;11.764;2022-09-09T11:17:30;7.00;;;2.20;;
2173;SDS011;1093;51.424;11.764;2022-09-09T11:20:03;2.70;;;1.80;;
2173;SDS011;1093;51.424;11.764;2022-09-09T11:22:33;5.20;;;1.80;;
2173;SDS011;1093;51.424;11.764;2022-09-09T11:25:07;1.93;;;1.30;;
2173;SDS011;1093;51.424;11.764;2022-09-09T11:27:42;3.90;;;1.60;;
2173;SDS011;1093;51.424;11.764;2022-09-09T11:30:18;5.73;;;1.77;;
2173;SDS011;1093;51.424;11.764;2022-09-09T11:32:50;4.73;;;1.90;;
2173;SDS011;1093;51.424;11.764;2022-09-09T11:35:40;2.83;;;1.30;;
2173;SDS011;1093;51.424;11.764;2022-09-09T11:38:21;2.53;;;1.63;;
2173;SDS011;1093;51.424;11.764;2022-09-09T11:40:58;5.43;;;2.17;;
2173;SDS011;1093;51.424;11.764;2022-09-09T11:43:28;6.10;;;1.90;;
2173;SDS011;1093;51.424;11.764;2022-09-09T11:45:57;3.57;;;1.70;;
2173;SDS011;1093;51.424;11.764;2022-09-09T11:48:32;5.77;;;2.70;;
2173;SDS011;1093;51.424;11.764;2022-09-09T11:51:01;6.10;;;1.43;;
2173;SDS011;1093;51.424;11.764;2022-09-09T11:53:30;3.40;;;1.07;;
2173;SDS011;1093;51.424;11.764;2022-09-09T11:56:03;1.60;;;1.33;;
2173;SDS011;1093;51.424;11.764;2022-09-09T11:58:42;4.93;;;2.00;;
2173;SDS011;1093;51.424;11.764;2022-09-09T12:01:16;3.07;;;1.60;;
2173;SDS011;1093;51.424;11.764;2022-09-09T12:03:59;4.20;;;1.70;;
2173;SDS011;1093;51.424;11.764;2022-09-09T12:06:41;3.10;;;1.63;;
2173;SDS011;1093;51.424;11.764;2022-09-09T12:09:15;3.43;;;1.47;;
2173;SDS011;1093;51.424;11.764;2022-09-09T12:11:47;4.30;;;1.63;;
2173;SDS011;1093;51.424;11.764;2022-09-09T12:14:21;2.43;;;1.70;;
2173;SDS011;1093;51.424;11.764;2022-09-09T12:16:49;4.73;;;2.00;;
2173;SDS011;1093;51.424;11.764;2022-09-09T12:19:18;2.20;;;1.77;;
2173;SDS011;1093;51.424;11.764;2022-09-09T12:21:49;7.40;;;1.60;;
2173;SDS011;1093;51.424;11.764;2022-09-09T12:24:25;8.63;;;1.70;;
2173;SDS011;1093;51.424;11.764;2022-09-09T12:27:01;3.23;;;1.67;;
2173;SDS011;1093;51.424;11.764;2022-09-09T12:29:37;7.97;;;1.83;;
2173;SDS011;1093;51.424;11.764;2022-09-09T12:32:11;4.70;;;1.50;;
2173;SDS011;1093;51.424;11.764;2022-09-09T12:34:42;5.27;;;1.90;;
2173;SDS011;1093;51.424;11.764;2022-09-09T12:37:14;5.07;;;1.30;;
2173;SDS011;1093;51.424;11.764;2022-09-09T12:39:47;3.20;;;1.50;;
2173;SDS011;1093;51.424;11.764;2022-09-09T12:42:20;1.50;;;1.30;;
2173;SDS011;1093;51.424;11.764;2022-09-09T12:44:55;3.60;;;1.43;;
2173;SDS011;1093;51.424;11.764;2022-09-09T12:47:29;3.37;;;1.70;;
2173;SDS011;1093;51.424;11.764;2022-09-09T12:50:03;3.73;;;2.10;;
2173;SDS011;1093;51.424;11.764;2022-09-09T12:52:31;4.03;;;1.40;;
2173;SDS011;1093;51.424;11.764;2022-09-09T12:55:01;3.17;;;1.50;;
2173;SDS011;1093;51.424;11.764;2022-09-09T12:57:33;3.10;;;1.50;;
2173;SDS011;1093;51.424;11.764;2022-09-09T13:00:06;5.67;;;1.47;;
2173;SDS011;1093;51.424;11.764;2022-09-09T13:02:45;2.13;;;1.73;;
2173;SDS011;1093;51.424;11.764;2022-09-09T13:05:15;2.10;;;1.30;;
2173;SDS011;1093;51.424;11.764;2022-09-09T13:07:45;5.73;;;2.30;;
2173;SDS011;1093;51.424;11.764;2022-09-09T13:10:12;5.60;;;1.50;;
2173;SDS011;1093;51.424;11.764;2022-09-09T13:12:43;3.00;;;1.57;;
2173;SDS011;1093;51.424;11.764;2022-09-09T13:15:14;3.83;;;1.37;;
2173;SDS011;1093;51.424;11.764;2022-09-09T13:17:51;3.80;;;1.40;;
2173;SDS011;1093;51.424;11.764;2022-09-09T13:20:20;4.57;;;1.50;;
2173;SDS011;1093;51.424;11.764;2022-09-09T13:22:48;3.13;;;1.40;;
2173;SDS011;1093;51.424;11.764;2022-09-09T13:25:18;2.50;;;1.60;;
2173;SDS011;1093;51.424;11.764;2022-09-09T13:27:54;1.87;;;1.17;;
2173;SDS011;1093;51.424;11.764;2022-09-09T13:30:23;4.87;;;1.27;;
2173;SDS011;1093;51.424;11.764;2022-09-09T13:33:02;3.07;;;1.67;;
2173;SDS011;1093;51.424;11.764;2022-09-09T13:35:46;2.43;;;1.33;;
2173;SDS011;1093;51.424;11.764;2022-09-09T13:38:16;6.73;;;1.47;;
2173;SDS011;1093;51.424;11.764;2022-09-09T13:40:51;6.73;;;1.80;;
2173;SDS011;1093;51.424;11.764;2022-09-09T13:43:24;6.90;;;1.60;;
2173;SDS011;1093;51.424;11.764;2022-09-09T13:45:52;3.57;;;1.60;;
2173;SDS011;1093;51.424;11.764;2022-09-09T13:48:21;5.07;;;1.43;;
2173;SDS011;1093;51.424;11.764;2022-09-09T13:50:53;5.93;;;2.00;;
2173;SDS011;1093;51.424;11.764;2022-09-09T13:53:21;3.47;;;2.00;;
2173;SDS011;1093;51.424;11.764;2022-09-09T13:55:48;2.60;;;1.60;;
2173;SDS011;1093;51.424;11.764;2022-09-09T13:58:15;5.93;;;1.50;;
2173;SDS011;1093;51.424;11.764;2022-09-09T14:00:45;2.10;;;1.13;;
2173;SDS011;1093;51.424;11.764;2022-09-09T14:03:13;3.23;;;1.57;;
2173;SDS011;1093;51.424;11.764;2022-09-09T14:05:39;2.83;;;1.20;;
2173;SDS011;1093;51.424;11.764;2022-09-09T14:08:07;3.83;;;1.20;;
2173;SDS011;1093;51.424;11.764;2022-09-09T14:10:41;5.27;;;1.23;;
2173;SDS011;1093;51.424;11.764;2022-09-09T14:13:08;3.47;;;1.20;;
2173;SDS011;1093;51.424;11.764;2022-09-09T14:15:35;0.97;;;0.87;;
2173;SDS011;1093;51.424;11.764;2022-09-09T14:18:03;1.73;;;1.07;;
2173;SDS011;1093;51.424;11.764;2022-09-09T14:20:30;2.27;;;1.10;;
2173;SDS011;1093;51.424;11.764;2022-09-09T14:22:57;1.27;;;0.83;;
2173;SDS011;1093;51.424;11.764;2022-09-09T14:25:24;2.03;;;1.00;;
2173;SDS011;1093;51.424;11.764;2022-09-09T14:27:51;3.30;;;1.13;;
2173;SDS011;1093;51.424;11.764;2022-09-09T14:30:18;1.77;;;1.37;;
2173;SDS011;1093;51.424;11.764;2022-09-09T14:32:44;2.73;;;0.90;;
2173;SDS011;1093;51.424;11.764;2022-09-09T14:35:13;1.77;;;0.77;;
2173;SDS011;1093;51.424;11.764;2022-09-09T14:37:40;2.00;;;0.87;;
2173;SDS011;1093;51.424;11.764;2022-09-09T14:40:07;3.63;;;0.83;;
2173;SDS011;1093;51.424;11.764;2022-09-09T14:42:34;3.50;;;1.03;;
2173;SDS011;1093;51.424;11.764;2022-09-09T14:45:01;2.73;;;1.00;;
2173;SDS011;1093;51.424;11.764;2022-09-09T14:47:27;1.73;;;0.83;;
2173;SDS011;1093;51.424;11.764;2022-09-09T14:49:55;3.03;;;1.00;;
2173;SDS011;1093;51.424;11.764;2022-09-09T14:52:23;0.90;;;0.60;;
2173;SDS011;1093;51.424;11.764;2022-09-09T14:54:50;3.00;;;1.10;;
2173;SDS011;1093;51.424;11.764;2022-09-09T14:57:17;3.50;;;1.20;;
2173;SDS011;1093;51.424;11.764;2022-09-09T14:59:44;3.50;;;1.03;;
2173;SDS011;1093;51.424;11.764;2022-09-09T15:02:11;0.90;;;0.77;;
2173;SDS011;1093;51.424;11.764;2022-09-09T15:04:39;0.80;;;0.70;;
2173;SDS011;1093;51.424;11.764;2022-09-09T15:07:05;1.67;;;0.67;;
2173;SDS011;1093;51.424;11.764;2022-09-09T15:09:33;0.80;;;0.70;;
2173;SDS011;1093;51.424;11.764;2022-09-09T15:12:02;1.30;;;0.70;;
2173;SDS011;1093;51.424;11.764;2022-09-09T15:14:29;2.27;;;1.17;;
2173;SDS011;1093;51.424;11.764;2022-09-09T15:16:56;2.30;;;1.07;;
2173;SDS011;1093;51.424;11.764;2022-09-09T15:19:23;1.97;;;0.83;;
2173;SDS011;1093;51.424;11.764;2022-09-09T15:21:50;2.23;;;1.20;;
2173;SDS011;1093;51.424;11.764;2022-09-09T15:24:17;5.70;;;1.00;;
2173;SDS011;1093;51.424;11.764;2022-09-09T15:26:45;2.80;;;1.23;;
2173;SDS011;1093;51.424;11.764;2022-09-09T15:29:12;2.23;;;0.87;;
2173;SDS011;1093;51.424;11.764;2022-09-09T15:31:39;4.23;;;1.40;;
2173;SDS011;1093;51.424;11.764;2022-09-09T15:34:06;2.17;;;1.10;;
2173;SDS011;1093;51.424;11.764;2022-09-09T15:36:34;11.03;;;1.33;;